sensor_id;sensor_type;location;lat;lon;timestamp;P1;durP1;ratioP1;P2;durP2;ratioP2
16262;SDS011;8239;48.594;8.598;2023-04-24T00:01:50;1.53;;;1.00;;
16262;SDS011;8239;48.594;8.598;2023-04-24T00:04:18;1.83;;;1.20;;
16262;SDS011;8239;48.594;8.598;2023-04-24T00:06:44;1.57;;;1.00;;
16262;SDS011;8239;48.594;8.598;2023-04-24T00:09:14;2.57;;;1.10;;
16262;SDS011;8239;48.594;8.598;2023-04-24T00:11:42;1.10;;;1.07;;
16262;SDS011;8239;48.594;8.598;2023-04-24T00:14:08;1.20;;;1.10;;
16262;SDS011;8239;48.594;8.598;2023-04-24T00:16:35;2.20;;;1.20;;
16262;SDS011;8239;48.594;8.598;2023-04-24T00:19:04;1.40;;;1.07;;
16262;SDS011;8239;48.594;8.598;2023-04-24T00:21:32;0.90;;;0.90;;
16262;SDS011;8239;48.594;8.598;2023-04-24T00:23:59;1.73;;;1.10;;
16262;SDS011;8239;48.594;8.598;2023-04-24T00:26:26;0.93;;;0.93;;
16262;SDS011;8239;48.594;8.598;2023-04-24T00:28:53;1.47;;;1.10;;
16262;SDS011;8239;48.594;8.598;2023-04-24T00:31:20;2.03;;;1.00;;
16262;SDS011;8239;48.594;8.598;2023-04-24T00:33:47;1.00;;;1.00;;
16262;SDS011;8239;48.594;8.598;2023-04-24T00:36:15;1.00;;;1.00;;
16262;SDS011;8239;48.594;8.598;2023-04-24T00:38:44;1.40;;;1.20;;
16262;SDS011;8239;48.594;8.598;2023-04-24T00:41:11;1.47;;;1.10;;
16262;SDS011;8239;48.594;8.598;2023-04-24T00:43:38;1.13;;;1.13;;
16262;SDS011;8239;48.594;8.598;2023-04-24T00:46:06;1.30;;;1.00;;
16262;SDS011;8239;48.594;8.598;2023-04-24T00:48:33;1.87;;;1.13;;
16262;SDS011;8239;48.594;8.598;2023-04-24T00:51:01;1.20;;;1.10;;
16262;SDS011;8239;48.594;8.598;2023-04-24T00:53:29;2.10;;;1.20;;
16262;SDS011;8239;48.594;8.598;2023-04-24T00:55:56;1.17;;;1.07;;
16262;SDS011;8239;48.594;8.598;2023-04-24T00:58:23;1.23;;;1.20;;
16262;SDS011;8239;48.594;8.598;2023-04-24T01:00:51;1.43;;;1.10;;
16262;SDS011;8239;48.594;8.598;2023-04-24T01:03:20;1.87;;;1.00;;
16262;SDS011;8239;48.594;8.598;2023-04-24T01:05:48;1.77;;;1.10;;
16262;SDS011;8239;48.594;8.598;2023-04-24T01:08:16;1.20;;;1.10;;
16262;SDS011;8239;48.594;8.598;2023-04-24T01:10:44;0.97;;;0.90;;
16262;SDS011;8239;48.594;8.598;2023-04-24T01:13:13;1.20;;;1.00;;
16262;SDS011;8239;48.594;8.598;2023-04-24T01:15:40;2.23;;;1.00;;
16262;SDS011;8239;48.594;8.598;2023-04-24T01:18:08;1.67;;;1.07;;
16262;SDS011;8239;48.594;8.598;2023-04-24T01:20:35;0.97;;;0.90;;
16262;SDS011;8239;48.594;8.598;2023-04-24T01:23:06;1.83;;;1.20;;
16262;SDS011;8239;48.594;8.598;2023-04-24T01:25:34;1.63;;;1.20;;
16262;SDS011;8239;48.594;8.598;2023-04-24T01:28:01;2.20;;;1.10;;
16262;SDS011;8239;48.594;8.598;2023-04-24T01:30:29;1.60;;;1.30;;
16262;SDS011;8239;48.594;8.598;2023-04-24T01:32:56;2.50;;;1.20;;
16262;SDS011;8239;48.594;8.598;2023-04-24T01:35:24;2.33;;;1.10;;
16262;SDS011;8239;48.594;8.598;2023-04-24T01:37:52;1.13;;;1.03;;
16262;SDS011;8239;48.594;8.598;2023-04-24T01:40:20;1.10;;;1.10;;
16262;SDS011;8239;48.594;8.598;2023-04-24T01:42:47;1.40;;;1.30;;
16262;SDS011;8239;48.594;8.598;2023-04-24T01:45:14;2.10;;;1.20;;
16262;SDS011;8239;48.594;8.598;2023-04-24T01:47:41;1.60;;;1.20;;
16262;SDS011;8239;48.594;8.598;2023-04-24T01:50:09;2.13;;;1.33;;
16262;SDS011;8239;48.594;8.598;2023-04-24T01:52:36;1.60;;;1.50;;
16262;SDS011;8239;48.594;8.598;2023-04-24T01:55:04;1.87;;;1.40;;
16262;SDS011;8239;48.594;8.598;2023-04-24T01:57:33;2.70;;;1.20;;
16262;SDS011;8239;48.594;8.598;2023-04-24T02:00:00;1.50;;;1.40;;
16262;SDS011;8239;48.594;8.598;2023-04-24T02:02:29;2.23;;;1.43;;
16262;SDS011;8239;48.594;8.598;2023-04-24T02:04:57;2.07;;;1.30;;
16262;SDS011;8239;48.594;8.598;2023-04-24T02:07:24;2.33;;;1.20;;
16262;SDS011;8239;48.594;8.598;2023-04-24T02:09:50;0.90;;;0.90;;
16262;SDS011;8239;48.594;8.598;2023-04-24T02:12:17;1.30;;;1.20;;
16262;SDS011;8239;48.594;8.598;2023-04-24T02:14:46;1.47;;;1.37;;
16262;SDS011;8239;48.594;8.598;2023-04-24T02:17:13;3.00;;;1.20;;
16262;SDS011;8239;48.594;8.598;2023-04-24T02:19:41;1.20;;;1.13;;
16262;SDS011;8239;48.594;8.598;2023-04-24T02:22:08;2.10;;;1.20;;
16262;SDS011;8239;48.594;8.598;2023-04-24T02:24:35;1.43;;;1.20;;
16262;SDS011;8239;48.594;8.598;2023-04-24T02:27:03;1.97;;;1.00;;
16262;SDS011;8239;48.594;8.598;2023-04-24T02:29:30;1.63;;;1.10;;
16262;SDS011;8239;48.594;8.598;2023-04-24T02:31:58;1.43;;;1.07;;
16262;SDS011;8239;48.594;8.598;2023-04-24T02:34:25;1.30;;;1.13;;
16262;SDS011;8239;48.594;8.598;2023-04-24T02:36:52;1.13;;;1.10;;
16262;SDS011;8239;48.594;8.598;2023-04-24T02:39:20;1.67;;;1.20;;
16262;SDS011;8239;48.594;8.598;2023-04-24T02:41:46;1.20;;;0.97;;
16262;SDS011;8239;48.594;8.598;2023-04-24T02:44:13;1.30;;;1.20;;
16262;SDS011;8239;48.594;8.598;2023-04-24T02:46:42;1.63;;;1.07;;
16262;SDS011;8239;48.594;8.598;2023-04-24T02:49:11;1.20;;;1.10;;
16262;SDS011;8239;48.594;8.598;2023-04-24T02:51:38;3.07;;;1.20;;
16262;SDS011;8239;48.594;8.598;2023-04-24T02:54:06;2.60;;;1.20;;
16262;SDS011;8239;48.594;8.598;2023-04-24T02:56:34;1.60;;;1.30;;
16262;SDS011;8239;48.594;8.598;2023-04-24T02:59:01;1.30;;;1.20;;
16262;SDS011;8239;48.594;8.598;2023-04-24T03:01:28;1.07;;;1.07;;
16262;SDS011;8239;48.594;8.598;2023-04-24T03:03:55;1.50;;;1.10;;
16262;SDS011;8239;48.594;8.598;2023-04-24T03:06:23;2.23;;;1.40;;
16262;SDS011;8239;48.594;8.598;2023-04-24T03:08:51;2.17;;;1.30;;
16262;SDS011;8239;48.594;8.598;2023-04-24T03:11:18;2.10;;;1.10;;
16262;SDS011;8239;48.594;8.598;2023-04-24T03:13:45;1.43;;;1.30;;
16262;SDS011;8239;48.594;8.598;2023-04-24T03:16:12;1.73;;;1.27;;
16262;SDS011;8239;48.594;8.598;2023-04-24T03:18:39;1.83;;;0.97;;
16262;SDS011;8239;48.594;8.598;2023-04-24T03:21:06;1.47;;;0.90;;
16262;SDS011;8239;48.594;8.598;2023-04-24T03:23:35;1.03;;;0.93;;
16262;SDS011;8239;48.594;8.598;2023-04-24T03:26:02;1.43;;;1.20;;
16262;SDS011;8239;48.594;8.598;2023-04-24T03:28:29;0.80;;;0.80;;
16262;SDS011;8239;48.594;8.598;2023-04-24T03:30:56;0.97;;;0.60;;
16262;SDS011;8239;48.594;8.598;2023-04-24T03:33:23;0.57;;;0.57;;
16262;SDS011;8239;48.594;8.598;2023-04-24T03:35:50;0.93;;;0.80;;
16262;SDS011;8239;48.594;8.598;2023-04-24T03:38:17;0.67;;;0.63;;
16262;SDS011;8239;48.594;8.598;2023-04-24T03:40:46;0.80;;;0.80;;
16262;SDS011;8239;48.594;8.598;2023-04-24T03:43:13;0.80;;;0.80;;
16262;SDS011;8239;48.594;8.598;2023-04-24T03:45:40;1.23;;;0.70;;
16262;SDS011;8239;48.594;8.598;2023-04-24T03:48:07;1.60;;;0.80;;
16262;SDS011;8239;48.594;8.598;2023-04-24T03:50:33;1.60;;;0.80;;
16262;SDS011;8239;48.594;8.598;2023-04-24T03:53:00;0.70;;;0.67;;
16262;SDS011;8239;48.594;8.598;2023-04-24T03:55:27;0.80;;;0.80;;
16262;SDS011;8239;48.594;8.598;2023-04-24T03:57:56;0.60;;;0.60;;
16262;SDS011;8239;48.594;8.598;2023-04-24T04:00:23;0.87;;;0.80;;
16262;SDS011;8239;48.594;8.598;2023-04-24T04:02:51;0.60;;;0.60;;
16262;SDS011;8239;48.594;8.598;2023-04-24T04:05:18;0.70;;;0.70;;
16262;SDS011;8239;48.594;8.598;2023-04-24T04:07:45;0.80;;;0.80;;
16262;SDS011;8239;48.594;8.598;2023-04-24T04:10:12;1.03;;;0.87;;
16262;SDS011;8239;48.594;8.598;2023-04-24T04:12:39;1.13;;;0.80;;
16262;SDS011;8239;48.594;8.598;2023-04-24T04:15:08;0.77;;;0.77;;
16262;SDS011;8239;48.594;8.598;2023-04-24T04:17:35;1.00;;;1.00;;
16262;SDS011;8239;48.594;8.598;2023-04-24T04:20:03;0.93;;;0.90;;
16262;SDS011;8239;48.594;8.598;2023-04-24T04:22:34;1.93;;;1.40;;
16262;SDS011;8239;48.594;8.598;2023-04-24T04:25:01;1.40;;;0.90;;
16262;SDS011;8239;48.594;8.598;2023-04-24T04:27:29;1.27;;;1.07;;
16262;SDS011;8239;48.594;8.598;2023-04-24T04:29:57;1.47;;;1.37;;
16262;SDS011;8239;48.594;8.598;2023-04-24T04:32:27;1.57;;;1.47;;
16262;SDS011;8239;48.594;8.598;2023-04-24T04:34:54;1.87;;;1.60;;
16262;SDS011;8239;48.594;8.598;2023-04-24T04:37:21;2.17;;;1.60;;
16262;SDS011;8239;48.594;8.598;2023-04-24T04:39:48;1.77;;;1.67;;
16262;SDS011;8239;48.594;8.598;2023-04-24T04:42:15;2.13;;;1.60;;
16262;SDS011;8239;48.594;8.598;2023-04-24T04:44:44;2.70;;;1.93;;
16262;SDS011;8239;48.594;8.598;2023-04-24T04:47:11;2.70;;;2.50;;
16262;SDS011;8239;48.594;8.598;2023-04-24T04:49:39;2.57;;;2.37;;
16262;SDS011;8239;48.594;8.598;2023-04-24T04:52:08;3.03;;;2.20;;
16262;SDS011;8239;48.594;8.598;2023-04-24T04:54:35;2.47;;;2.00;;
16262;SDS011;8239;48.594;8.598;2023-04-24T04:57:02;2.27;;;2.07;;
16262;SDS011;8239;48.594;8.598;2023-04-24T04:59:29;2.07;;;1.73;;
16262;SDS011;8239;48.594;8.598;2023-04-24T05:01:56;3.70;;;1.53;;
16262;SDS011;8239;48.594;8.598;2023-04-24T05:04:23;2.17;;;1.60;;
16262;SDS011;8239;48.594;8.598;2023-04-24T05:06:52;1.80;;;1.70;;
16262;SDS011;8239;48.594;8.598;2023-04-24T05:09:19;2.23;;;1.73;;
16262;SDS011;8239;48.594;8.598;2023-04-24T05:11:46;2.43;;;1.60;;
16262;SDS011;8239;48.594;8.598;2023-04-24T05:14:13;1.87;;;1.77;;
16262;SDS011;8239;48.594;8.598;2023-04-24T05:16:42;1.87;;;1.77;;
16262;SDS011;8239;48.594;8.598;2023-04-24T05:19:09;1.80;;;1.70;;
16262;SDS011;8239;48.594;8.598;2023-04-24T05:21:38;2.77;;;1.80;;
16262;SDS011;8239;48.594;8.598;2023-04-24T05:24:07;3.60;;;1.70;;
16262;SDS011;8239;48.594;8.598;2023-04-24T05:26:34;1.97;;;1.87;;
16262;SDS011;8239;48.594;8.598;2023-04-24T05:29:01;1.70;;;1.60;;
16262;SDS011;8239;48.594;8.598;2023-04-24T05:31:29;2.07;;;1.60;;
16262;SDS011;8239;48.594;8.598;2023-04-24T05:33:56;2.03;;;1.80;;
16262;SDS011;8239;48.594;8.598;2023-04-24T05:36:23;2.30;;;1.77;;
16262;SDS011;8239;48.594;8.598;2023-04-24T05:38:50;1.60;;;1.50;;
16262;SDS011;8239;48.594;8.598;2023-04-24T05:41:18;1.90;;;1.80;;
16262;SDS011;8239;48.594;8.598;2023-04-24T05:43:46;2.03;;;1.67;;
16262;SDS011;8239;48.594;8.598;2023-04-24T05:46:13;1.70;;;1.60;;
16262;SDS011;8239;48.594;8.598;2023-04-24T05:48:40;1.60;;;1.50;;
16262;SDS011;8239;48.594;8.598;2023-04-24T05:51:07;2.37;;;1.50;;
16262;SDS011;8239;48.594;8.598;2023-04-24T05:53:35;1.40;;;1.30;;
16262;SDS011;8239;48.594;8.598;2023-04-24T05:56:02;1.53;;;1.43;;
16262;SDS011;8239;48.594;8.598;2023-04-24T05:58:31;2.03;;;1.50;;
16262;SDS011;8239;48.594;8.598;2023-04-24T06:00:58;1.70;;;1.60;;
16262;SDS011;8239;48.594;8.598;2023-04-24T06:03:26;1.60;;;1.50;;
16262;SDS011;8239;48.594;8.598;2023-04-24T06:05:53;1.40;;;1.30;;
16262;SDS011;8239;48.594;8.598;2023-04-24T06:08:21;1.43;;;1.30;;
16262;SDS011;8239;48.594;8.598;2023-04-24T06:10:48;3.03;;;1.60;;
16262;SDS011;8239;48.594;8.598;2023-04-24T06:13:15;1.37;;;1.23;;
16262;SDS011;8239;48.594;8.598;2023-04-24T06:15:43;1.50;;;1.40;;
16262;SDS011;8239;48.594;8.598;2023-04-24T06:18:10;1.47;;;1.37;;
16262;SDS011;8239;48.594;8.598;2023-04-24T06:20:37;1.30;;;1.20;;
16262;SDS011;8239;48.594;8.598;2023-04-24T06:23:05;1.20;;;1.20;;
16262;SDS011;8239;48.594;8.598;2023-04-24T06:25:32;1.20;;;1.17;;
16262;SDS011;8239;48.594;8.598;2023-04-24T06:27:59;1.50;;;1.40;;
16262;SDS011;8239;48.594;8.598;2023-04-24T06:30:26;1.50;;;1.40;;
16262;SDS011;8239;48.594;8.598;2023-04-24T06:32:55;1.37;;;1.27;;
16262;SDS011;8239;48.594;8.598;2023-04-24T06:35:22;1.53;;;1.43;;
16262;SDS011;8239;48.594;8.598;2023-04-24T06:37:49;1.70;;;1.60;;
16262;SDS011;8239;48.594;8.598;2023-04-24T06:40:17;1.70;;;1.60;;
16262;SDS011;8239;48.594;8.598;2023-04-24T06:42:44;2.20;;;1.70;;
16262;SDS011;8239;48.594;8.598;2023-04-24T06:45:11;1.60;;;1.50;;
16262;SDS011;8239;48.594;8.598;2023-04-24T06:47:38;1.53;;;1.43;;
16262;SDS011;8239;48.594;8.598;2023-04-24T06:50:07;1.50;;;1.40;;
16262;SDS011;8239;48.594;8.598;2023-04-24T06:52:35;2.37;;;1.33;;
16262;SDS011;8239;48.594;8.598;2023-04-24T06:55:02;1.30;;;1.30;;
16262;SDS011;8239;48.594;8.598;2023-04-24T06:57:30;1.20;;;1.10;;
16262;SDS011;8239;48.594;8.598;2023-04-24T06:59:57;1.47;;;1.30;;
16262;SDS011;8239;48.594;8.598;2023-04-24T07:02:24;1.63;;;1.30;;
16262;SDS011;8239;48.594;8.598;2023-04-24T07:04:51;1.40;;;1.30;;
16262;SDS011;8239;48.594;8.598;2023-04-24T07:07:20;1.77;;;1.20;;
16262;SDS011;8239;48.594;8.598;2023-04-24T07:09:48;1.60;;;1.50;;
16262;SDS011;8239;48.594;8.598;2023-04-24T07:12:15;1.10;;;1.10;;
16262;SDS011;8239;48.594;8.598;2023-04-24T07:14:45;1.13;;;1.13;;
16262;SDS011;8239;48.594;8.598;2023-04-24T07:17:12;1.50;;;1.40;;
16262;SDS011;8239;48.594;8.598;2023-04-24T07:19:39;1.20;;;1.10;;
16262;SDS011;8239;48.594;8.598;2023-04-24T07:22:07;1.40;;;1.30;;
16262;SDS011;8239;48.594;8.598;2023-04-24T07:24:35;1.67;;;1.20;;
16262;SDS011;8239;48.594;8.598;2023-04-24T07:27:02;1.30;;;1.13;;
16262;SDS011;8239;48.594;8.598;2023-04-24T07:29:30;1.50;;;1.10;;
16262;SDS011;8239;48.594;8.598;2023-04-24T07:31:57;1.13;;;1.03;;
16262;SDS011;8239;48.594;8.598;2023-04-24T07:34:24;1.20;;;1.20;;
16262;SDS011;8239;48.594;8.598;2023-04-24T07:36:51;1.10;;;1.10;;
16262;SDS011;8239;48.594;8.598;2023-04-24T07:39:18;1.27;;;1.23;;
16262;SDS011;8239;48.594;8.598;2023-04-24T07:41:47;1.70;;;1.20;;
16262;SDS011;8239;48.594;8.598;2023-04-24T07:44:14;1.00;;;0.90;;
16262;SDS011;8239;48.594;8.598;2023-04-24T07:46:41;1.00;;;1.00;;
16262;SDS011;8239;48.594;8.598;2023-04-24T07:49:08;1.47;;;1.37;;
16262;SDS011;8239;48.594;8.598;2023-04-24T07:51:35;1.83;;;1.50;;
16262;SDS011;8239;48.594;8.598;2023-04-24T07:54:03;1.70;;;1.40;;
16262;SDS011;8239;48.594;8.598;2023-04-24T07:56:31;1.23;;;1.13;;
16262;SDS011;8239;48.594;8.598;2023-04-24T07:59:00;2.07;;;1.43;;
16262;SDS011;8239;48.594;8.598;2023-04-24T08:01:27;1.63;;;1.53;;
16262;SDS011;8239;48.594;8.598;2023-04-24T08:03:54;1.60;;;1.30;;
16262;SDS011;8239;48.594;8.598;2023-04-24T08:06:21;1.33;;;1.20;;
16262;SDS011;8239;48.594;8.598;2023-04-24T08:08:49;1.97;;;1.40;;
16262;SDS011;8239;48.594;8.598;2023-04-24T08:11:16;1.30;;;1.20;;
16262;SDS011;8239;48.594;8.598;2023-04-24T08:13:43;1.50;;;1.40;;
16262;SDS011;8239;48.594;8.598;2023-04-24T08:16:12;1.90;;;1.60;;
16262;SDS011;8239;48.594;8.598;2023-04-24T08:18:39;2.13;;;1.40;;
16262;SDS011;8239;48.594;8.598;2023-04-24T08:21:06;1.40;;;1.30;;
16262;SDS011;8239;48.594;8.598;2023-04-24T08:23:33;1.97;;;1.50;;
16262;SDS011;8239;48.594;8.598;2023-04-24T08:26:00;1.90;;;1.30;;
16262;SDS011;8239;48.594;8.598;2023-04-24T08:28:28;1.30;;;1.20;;
16262;SDS011;8239;48.594;8.598;2023-04-24T08:30:55;1.40;;;1.30;;
16262;SDS011;8239;48.594;8.598;2023-04-24T08:33:23;1.20;;;1.10;;
16262;SDS011;8239;48.594;8.598;2023-04-24T08:35:50;2.87;;;1.73;;
16262;SDS011;8239;48.594;8.598;2023-04-24T08:38:18;2.73;;;1.60;;
16262;SDS011;8239;48.594;8.598;2023-04-24T08:40:46;4.83;;;3.10;;
16262;SDS011;8239;48.594;8.598;2023-04-24T08:43:14;3.20;;;1.30;;
16262;SDS011;8239;48.594;8.598;2023-04-24T08:45:42;2.10;;;1.30;;
16262;SDS011;8239;48.594;8.598;2023-04-24T08:48:09;1.10;;;1.10;;
16262;SDS011;8239;48.594;8.598;2023-04-24T08:50:38;1.88;;;1.45;;
16262;SDS011;8239;48.594;8.598;2023-04-24T08:53:07;1.20;;;1.00;;
16262;SDS011;8239;48.594;8.598;2023-04-24T08:55:35;1.45;;;1.10;;
16262;SDS011;8239;48.594;8.598;2023-04-24T08:58:03;1.50;;;1.20;;
16262;SDS011;8239;48.594;8.598;2023-04-24T09:00:30;1.30;;;1.00;;
16262;SDS011;8239;48.594;8.598;2023-04-24T09:02:59;1.30;;;1.20;;
16262;SDS011;8239;48.594;8.598;2023-04-24T09:05:27;1.13;;;0.90;;
16262;SDS011;8239;48.594;8.598;2023-04-24T09:07:56;1.23;;;1.10;;
16262;SDS011;8239;48.594;8.598;2023-04-24T09:10:25;2.05;;;1.02;;
16262;SDS011;8239;48.594;8.598;2023-04-24T09:12:53;1.52;;;1.10;;
16262;SDS011;8239;48.594;8.598;2023-04-24T09:15:21;1.30;;;1.00;;
16262;SDS011;8239;48.594;8.598;2023-04-24T09:17:49;1.60;;;0.95;;
16262;SDS011;8239;48.594;8.598;2023-04-24T09:20:16;1.05;;;1.05;;
16262;SDS011;8239;48.594;8.598;2023-04-24T09:22:43;1.00;;;0.90;;
16262;SDS011;8239;48.594;8.598;2023-04-24T09:25:13;0.98;;;0.80;;
16262;SDS011;8239;48.594;8.598;2023-04-24T09:27:43;2.53;;;0.98;;
16262;SDS011;8239;48.594;8.598;2023-04-24T09:30:12;1.00;;;0.90;;
16262;SDS011;8239;48.594;8.598;2023-04-24T09:32:41;1.20;;;0.90;;
16262;SDS011;8239;48.594;8.598;2023-04-24T09:35:09;1.13;;;1.03;;
16262;SDS011;8239;48.594;8.598;2023-04-24T09:37:39;1.03;;;1.00;;
16262;SDS011;8239;48.594;8.598;2023-04-24T09:40:16;1.13;;;1.00;;
16262;SDS011;8239;48.594;8.598;2023-04-24T09:42:51;1.07;;;1.07;;
16262;SDS011;8239;48.594;8.598;2023-04-24T09:45:19;0.87;;;0.87;;
16262;SDS011;8239;48.594;8.598;2023-04-24T09:47:51;10.70;;;1.00;;
16262;SDS011;8239;48.594;8.598;2023-04-24T09:50:20;2.10;;;1.23;;
16262;SDS011;8239;48.594;8.598;2023-04-24T09:52:56;1.83;;;1.13;;
16262;SDS011;8239;48.594;8.598;2023-04-24T09:55:26;1.87;;;1.30;;
16262;SDS011;8239;48.594;8.598;2023-04-24T09:57:53;1.63;;;1.10;;
16262;SDS011;8239;48.594;8.598;2023-04-24T10:00:22;1.40;;;1.13;;
16262;SDS011;8239;48.594;8.598;2023-04-24T10:02:53;1.40;;;0.97;;
16262;SDS011;8239;48.594;8.598;2023-04-24T10:05:23;1.43;;;1.10;;
16262;SDS011;8239;48.594;8.598;2023-04-24T10:07:51;1.73;;;1.10;;
16262;SDS011;8239;48.594;8.598;2023-04-24T10:10:22;1.53;;;1.00;;
16262;SDS011;8239;48.594;8.598;2023-04-24T10:12:50;1.27;;;0.90;;
16262;SDS011;8239;48.594;8.598;2023-04-24T10:15:18;1.07;;;1.03;;
16262;SDS011;8239;48.594;8.598;2023-04-24T10:17:47;1.47;;;1.10;;
16262;SDS011;8239;48.594;8.598;2023-04-24T10:20:18;1.00;;;1.00;;
16262;SDS011;8239;48.594;8.598;2023-04-24T10:22:47;1.17;;;1.00;;
16262;SDS011;8239;48.594;8.598;2023-04-24T10:25:16;1.47;;;1.17;;
16262;SDS011;8239;48.594;8.598;2023-04-24T10:27:45;2.57;;;1.13;;
16262;SDS011;8239;48.594;8.598;2023-04-24T10:30:14;0.80;;;0.80;;
16262;SDS011;8239;48.594;8.598;2023-04-24T10:32:42;1.00;;;0.90;;
16262;SDS011;8239;48.594;8.598;2023-04-24T10:35:09;2.30;;;1.03;;
16262;SDS011;8239;48.594;8.598;2023-04-24T10:37:39;1.30;;;0.90;;
16262;SDS011;8239;48.594;8.598;2023-04-24T10:40:08;1.63;;;0.93;;
16262;SDS011;8239;48.594;8.598;2023-04-24T10:42:39;0.80;;;0.80;;
16262;SDS011;8239;48.594;8.598;2023-04-24T10:45:11;0.90;;;0.90;;
16262;SDS011;8239;48.594;8.598;2023-04-24T10:47:52;1.13;;;1.00;;
16262;SDS011;8239;48.594;8.598;2023-04-24T10:50:25;1.10;;;1.00;;
16262;SDS011;8239;48.594;8.598;2023-04-24T10:52:53;1.20;;;1.10;;
16262;SDS011;8239;48.594;8.598;2023-04-24T10:58:10;0.60;;;0.60;;
16262;SDS011;8239;48.594;8.598;2023-04-24T11:00:39;0.90;;;0.90;;
16262;SDS011;8239;48.594;8.598;2023-04-24T11:03:22;1.60;;;0.90;;
16262;SDS011;8239;48.594;8.598;2023-04-24T11:05:55;0.77;;;0.77;;
16262;SDS011;8239;48.594;8.598;2023-04-24T11:08:24;1.00;;;0.97;;
16262;SDS011;8239;48.594;8.598;2023-04-24T11:10:57;1.43;;;1.00;;
16262;SDS011;8239;48.594;8.598;2023-04-24T11:16:36;1.17;;;1.17;;
16262;SDS011;8239;48.594;8.598;2023-04-24T11:19:18;1.13;;;1.03;;
16262;SDS011;8239;48.594;8.598;2023-04-24T11:21:49;1.10;;;1.00;;
16262;SDS011;8239;48.594;8.598;2023-04-24T11:24:29;0.80;;;0.80;;
16262;SDS011;8239;48.594;8.598;2023-04-24T11:26:58;1.10;;;1.00;;
16262;SDS011;8239;48.594;8.598;2023-04-24T11:29:41;1.20;;;1.10;;
16262;SDS011;8239;48.594;8.598;2023-04-24T11:32:18;0.87;;;0.87;;
16262;SDS011;8239;48.594;8.598;2023-04-24T11:34:51;1.20;;;1.10;;
16262;SDS011;8239;48.594;8.598;2023-04-24T11:37:19;1.27;;;1.10;;
16262;SDS011;8239;48.594;8.598;2023-04-24T11:39:50;1.37;;;1.13;;
16262;SDS011;8239;48.594;8.598;2023-04-24T11:42:18;1.23;;;1.10;;
16262;SDS011;8239;48.594;8.598;2023-04-24T11:44:46;1.20;;;1.20;;
16262;SDS011;8239;48.594;8.598;2023-04-24T11:47:14;0.97;;;0.90;;
16262;SDS011;8239;48.594;8.598;2023-04-24T11:49:42;1.27;;;0.90;;
16262;SDS011;8239;48.594;8.598;2023-04-24T11:52:09;1.47;;;1.27;;
16262;SDS011;8239;48.594;8.598;2023-04-24T11:54:36;1.00;;;1.00;;
16262;SDS011;8239;48.594;8.598;2023-04-24T11:57:04;1.33;;;1.23;;
16262;SDS011;8239;48.594;8.598;2023-04-24T11:59:36;0.63;;;0.63;;
16262;SDS011;8239;48.594;8.598;2023-04-24T12:02:04;0.70;;;0.70;;
16262;SDS011;8239;48.594;8.598;2023-04-24T12:04:38;0.90;;;0.90;;
16262;SDS011;8239;48.594;8.598;2023-04-24T12:07:07;1.47;;;1.20;;
16262;SDS011;8239;48.594;8.598;2023-04-24T12:09:41;1.40;;;1.30;;
16262;SDS011;8239;48.594;8.598;2023-04-24T12:12:09;1.17;;;1.00;;
16262;SDS011;8239;48.594;8.598;2023-04-24T12:14:43;1.57;;;1.20;;
16262;SDS011;8239;48.594;8.598;2023-04-24T12:17:11;1.03;;;0.90;;
16262;SDS011;8239;48.594;8.598;2023-04-24T12:19:44;1.20;;;1.20;;
16262;SDS011;8239;48.594;8.598;2023-04-24T12:22:13;0.93;;;0.93;;
16262;SDS011;8239;48.594;8.598;2023-04-24T12:24:56;1.87;;;1.57;;
16262;SDS011;8239;48.594;8.598;2023-04-24T12:27:25;1.90;;;1.40;;
16262;SDS011;8239;48.594;8.598;2023-04-24T12:29:53;1.23;;;1.10;;
16262;SDS011;8239;48.594;8.598;2023-04-24T12:32:22;1.60;;;1.30;;
16262;SDS011;8239;48.594;8.598;2023-04-24T12:34:50;1.43;;;1.20;;
16262;SDS011;8239;48.594;8.598;2023-04-24T12:37:19;2.07;;;1.60;;
16262;SDS011;8239;48.594;8.598;2023-04-24T12:39:58;1.93;;;1.83;;
16262;SDS011;8239;48.594;8.598;2023-04-24T12:42:27;1.73;;;1.63;;
16262;SDS011;8239;48.594;8.598;2023-04-24T12:44:58;1.83;;;1.40;;
16262;SDS011;8239;48.594;8.598;2023-04-24T12:47:28;1.67;;;1.40;;
16262;SDS011;8239;48.594;8.598;2023-04-24T12:49:55;1.90;;;1.60;;
16262;SDS011;8239;48.594;8.598;2023-04-24T12:52:24;2.20;;;1.63;;
16262;SDS011;8239;48.594;8.598;2023-04-24T12:54:52;1.67;;;1.40;;
16262;SDS011;8239;48.594;8.598;2023-04-24T12:57:20;1.50;;;1.40;;
16262;SDS011;8239;48.594;8.598;2023-04-24T12:59:47;1.00;;;1.00;;
16262;SDS011;8239;48.594;8.598;2023-04-24T13:02:15;1.53;;;1.20;;
16262;SDS011;8239;48.594;8.598;2023-04-24T13:04:43;2.03;;;1.40;;
16262;SDS011;8239;48.594;8.598;2023-04-24T13:07:12;2.23;;;1.20;;
16262;SDS011;8239;48.594;8.598;2023-04-24T13:09:41;1.57;;;1.40;;
16262;SDS011;8239;48.594;8.598;2023-04-24T13:12:09;1.20;;;1.20;;
16262;SDS011;8239;48.594;8.598;2023-04-24T13:14:37;1.20;;;1.20;;
16262;SDS011;8239;48.594;8.598;2023-04-24T13:17:04;1.33;;;1.20;;
16262;SDS011;8239;48.594;8.598;2023-04-24T13:19:35;1.40;;;1.30;;
16262;SDS011;8239;48.594;8.598;2023-04-24T13:22:03;1.53;;;1.43;;
16262;SDS011;8239;48.594;8.598;2023-04-24T13:24:30;1.77;;;1.10;;
16262;SDS011;8239;48.594;8.598;2023-04-24T13:26:59;1.37;;;1.00;;
16262;SDS011;8239;48.594;8.598;2023-04-24T13:29:27;1.70;;;1.43;;
16262;SDS011;8239;48.594;8.598;2023-04-24T13:31:54;2.07;;;1.30;;
16262;SDS011;8239;48.594;8.598;2023-04-24T13:34:21;1.30;;;1.30;;
16262;SDS011;8239;48.594;8.598;2023-04-24T13:36:49;2.37;;;1.60;;
16262;SDS011;8239;48.594;8.598;2023-04-24T13:39:16;2.57;;;1.60;;
16262;SDS011;8239;48.594;8.598;2023-04-24T13:41:43;1.50;;;1.40;;
16262;SDS011;8239;48.594;8.598;2023-04-24T13:44:14;1.60;;;1.27;;
16262;SDS011;8239;48.594;8.598;2023-04-24T13:46:41;2.23;;;1.40;;
16262;SDS011;8239;48.594;8.598;2023-04-24T13:49:10;2.23;;;1.40;;
16262;SDS011;8239;48.594;8.598;2023-04-24T13:51:37;1.33;;;1.23;;
16262;SDS011;8239;48.594;8.598;2023-04-24T13:54:05;1.93;;;1.50;;
16262;SDS011;8239;48.594;8.598;2023-04-24T13:56:32;1.70;;;1.60;;
16262;SDS011;8239;48.594;8.598;2023-04-24T13:58:59;1.67;;;1.37;;
16262;SDS011;8239;48.594;8.598;2023-04-24T14:01:28;2.17;;;1.27;;
16262;SDS011;8239;48.594;8.598;2023-04-24T14:03:58;1.97;;;1.50;;
16262;SDS011;8239;48.594;8.598;2023-04-24T14:06:25;1.20;;;1.10;;
16262;SDS011;8239;48.594;8.598;2023-04-24T14:08:52;1.37;;;1.27;;
16262;SDS011;8239;48.594;8.598;2023-04-24T14:11:19;1.47;;;1.37;;
16262;SDS011;8239;48.594;8.598;2023-04-24T14:13:47;2.63;;;1.43;;
16262;SDS011;8239;48.594;8.598;2023-04-24T14:16:14;2.03;;;1.50;;
16262;SDS011;8239;48.594;8.598;2023-04-24T14:18:43;1.67;;;1.57;;
16262;SDS011;8239;48.594;8.598;2023-04-24T14:21:10;1.50;;;1.40;;
16262;SDS011;8239;48.594;8.598;2023-04-24T14:23:37;1.40;;;1.33;;
16262;SDS011;8239;48.594;8.598;2023-04-24T14:26:04;1.67;;;1.40;;
16262;SDS011;8239;48.594;8.598;2023-04-24T14:28:32;1.50;;;1.40;;
16262;SDS011;8239;48.594;8.598;2023-04-24T14:30:59;1.10;;;1.10;;
16262;SDS011;8239;48.594;8.598;2023-04-24T14:33:26;2.33;;;1.40;;
16262;SDS011;8239;48.594;8.598;2023-04-24T14:35:57;1.60;;;1.50;;
16262;SDS011;8239;48.594;8.598;2023-04-24T14:38:24;1.37;;;1.10;;
16262;SDS011;8239;48.594;8.598;2023-04-24T14:40:51;1.47;;;1.30;;
16262;SDS011;8239;48.594;8.598;2023-04-24T14:43:18;1.57;;;1.47;;
16262;SDS011;8239;48.594;8.598;2023-04-24T14:45:45;1.87;;;1.40;;
16262;SDS011;8239;48.594;8.598;2023-04-24T14:48:12;1.60;;;1.50;;
16262;SDS011;8239;48.594;8.598;2023-04-24T14:50:41;2.00;;;1.63;;
16262;SDS011;8239;48.594;8.598;2023-04-24T14:53:09;1.60;;;1.50;;
16262;SDS011;8239;48.594;8.598;2023-04-24T14:55:36;1.60;;;1.50;;
16262;SDS011;8239;48.594;8.598;2023-04-24T14:58:04;1.60;;;1.50;;
16262;SDS011;8239;48.594;8.598;2023-04-24T15:00:31;2.87;;;2.10;;
16262;SDS011;8239;48.594;8.598;2023-04-24T15:02:58;2.40;;;2.20;;
16262;SDS011;8239;48.594;8.598;2023-04-24T15:05:25;2.20;;;1.60;;
16262;SDS011;8239;48.594;8.598;2023-04-24T15:07:52;1.60;;;1.50;;
16262;SDS011;8239;48.594;8.598;2023-04-24T15:10:20;1.77;;;1.60;;
16262;SDS011;8239;48.594;8.598;2023-04-24T15:12:48;1.60;;;1.50;;